createdAt,value
2022-11-04T00:00:09.833Z,3.58
2022-11-04T00:02:36.355Z,2.85
2022-11-04T00:05:02.782Z,2.50
2022-11-04T00:07:29.182Z,2.28
2022-11-04T00:09:55.560Z,2.25
2022-11-04T00:12:21.944Z,2.63
2022-11-04T00:14:48.345Z,2.95
2022-11-04T00:17:14.749Z,2.50
2022-11-04T00:19:41.134Z,2.90
2022-11-04T00:22:07.532Z,2.58
2022-11-04T00:24:33.926Z,2.28
2022-11-04T00:27:00.308Z,2.60
2022-11-04T00:29:26.707Z,2.63
2022-11-04T00:31:53.093Z,2.33
2022-11-04T00:34:19.483Z,2.55
2022-11-04T00:36:45.861Z,2.55
2022-11-04T00:39:12.302Z,2.42
2022-11-04T00:41:38.701Z,2.30
2022-11-04T00:44:05.098Z,2.25
2022-11-04T00:46:31.497Z,1.65
2022-11-04T00:48:57.880Z,2.00
2022-11-04T00:51:24.289Z,1.67
2022-11-04T00:53:50.683Z,1.30
2022-11-04T00:56:17.084Z,1.45
2022-11-04T00:58:43.484Z,2.10
2022-11-04T01:01:09.934Z,1.33
2022-11-04T01:03:36.396Z,1.38
2022-11-04T01:06:02.796Z,1.20
2022-11-04T01:08:29.227Z,1.10
2022-11-04T01:10:56.509Z,1.27
2022-11-04T01:13:23.027Z,1.35
2022-11-04T01:15:49.483Z,1.40
2022-11-04T01:18:16.336Z,1.17
2022-11-04T01:20:42.935Z,1.17
2022-11-04T01:23:09.758Z,1.30
2022-11-04T01:25:36.381Z,1.27
2022-11-04T01:28:03.395Z,1.00
2022-11-04T01:30:30.039Z,1.10
2022-11-04T01:32:57.066Z,1.10
2022-11-04T01:35:23.612Z,1.00
2022-11-04T01:37:50.693Z,1.13
2022-11-04T01:40:17.253Z,1.00
2022-11-04T01:42:43.983Z,1.20
2022-11-04T01:45:10.583Z,0.90
2022-11-04T01:47:37.410Z,0.70
2022-11-04T01:50:04.314Z,0.80
2022-11-04T01:52:31.159Z,0.80
2022-11-04T01:54:57.785Z,0.77
2022-11-04T01:57:24.827Z,0.63
2022-11-04T01:59:51.487Z,0.55
2022-11-04T02:02:18.391Z,0.40
2022-11-04T02:04:45.223Z,0.70
2022-11-04T02:07:11.783Z,0.63
2022-11-04T02:09:38.313Z,0.63
2022-11-04T02:12:05.077Z,0.50
2022-11-04T02:14:31.965Z,0.60
2022-11-04T02:16:58.685Z,0.55
2022-11-04T02:19:25.865Z,0.50
2022-11-04T02:21:52.389Z,0.45
2022-11-04T02:24:18.892Z,0.50
2022-11-04T02:26:45.689Z,0.38
2022-11-04T02:29:12.174Z,0.43
2022-11-04T02:31:39.181Z,0.40
2022-11-04T02:34:05.776Z,0.50
2022-11-04T02:36:32.543Z,0.47
2022-11-04T02:38:59.224Z,0.50
2022-11-04T02:41:25.816Z,0.73
2022-11-04T02:43:52.376Z,0.50
2022-11-04T02:46:19.317Z,0.45
2022-11-04T02:48:45.791Z,0.50
2022-11-04T02:51:12.486Z,0.40
2022-11-04T02:53:40.406Z,0.63
2022-11-04T02:56:06.873Z,0.50
2022-11-04T02:58:33.572Z,0.40
2022-11-04T03:01:00.270Z,0.50
2022-11-04T03:03:27.414Z,0.35
2022-11-04T03:05:54.405Z,0.40
2022-11-04T03:08:21.150Z,0.30
2022-11-04T03:10:47.579Z,0.30
2022-11-04T03:13:14.295Z,0.40
2022-11-04T03:15:40.800Z,0.35
2022-11-04T03:18:07.532Z,0.43
2022-11-04T03:20:34.490Z,0.40
2022-11-04T03:23:01.172Z,0.30
2022-11-04T03:25:27.698Z,0.30
2022-11-04T03:27:54.581Z,0.30
2022-11-04T03:30:21.194Z,0.30
2022-11-04T03:32:48.083Z,0.35
2022-11-04T03:35:14.670Z,0.40
2022-11-04T03:37:41.360Z,0.40
2022-11-04T03:40:07.991Z,0.50
2022-11-04T03:42:34.634Z,0.40
2022-11-04T03:45:01.331Z,0.47
2022-11-04T03:47:28.091Z,0.40
2022-11-04T03:49:54.693Z,0.50
2022-11-04T03:52:21.492Z,0.30
2022-11-04T03:54:48.008Z,0.40
2022-11-04T03:57:14.541Z,0.32
2022-11-04T03:59:41.130Z,0.40
2022-11-04T04:02:07.654Z,0.40
2022-11-04T04:04:34.390Z,0.38
2022-11-04T04:07:00.964Z,0.50
2022-11-04T04:09:27.843Z,0.25
2022-11-04T04:11:54.300Z,0.40
2022-11-04T04:14:20.890Z,0.43
2022-11-04T04:16:47.413Z,0.40
2022-11-04T04:19:14.013Z,0.40
2022-11-04T04:21:40.540Z,0.40
2022-11-04T04:24:07.105Z,0.30
2022-11-04T04:26:33.782Z,0.30
2022-11-04T04:29:00.613Z,0.40
2022-11-04T04:31:27.666Z,0.40
2022-11-04T04:33:54.687Z,0.50
2022-11-04T04:36:21.695Z,0.35
2022-11-04T04:38:48.502Z,0.20
2022-11-04T04:41:15.414Z,0.20
2022-11-04T04:43:42.678Z,0.30
2022-11-04T04:46:09.603Z,0.30
2022-11-04T04:48:36.255Z,0.28
2022-11-04T04:51:03.287Z,0.40
2022-11-04T04:53:29.895Z,0.25
2022-11-04T04:55:58.432Z,0.30
2022-11-04T04:58:25.008Z,0.47
2022-11-04T05:00:51.520Z,0.32
2022-11-04T05:03:19.868Z,0.22
2022-11-04T05:05:46.371Z,0.30
2022-11-04T05:08:13.114Z,0.40
2022-11-04T05:10:40.023Z,0.40
2022-11-04T05:13:06.524Z,0.40
2022-11-04T05:15:33.271Z,0.40
2022-11-04T05:18:00.523Z,0.38
2022-11-04T05:20:28.474Z,0.30
2022-11-04T05:22:55.228Z,0.25
2022-11-04T05:25:22.069Z,0.25
2022-11-04T05:27:48.777Z,0.30
2022-11-04T05:30:15.654Z,0.30
2022-11-04T05:32:42.138Z,0.30
2022-11-04T05:35:09.696Z,0.40
2022-11-04T05:37:36.205Z,0.30
2022-11-04T05:40:02.737Z,0.35
2022-11-04T05:42:29.668Z,0.47
2022-11-04T05:44:56.787Z,0.30
2022-11-04T05:47:23.933Z,0.22
2022-11-04T05:49:53.552Z,0.35
2022-11-04T05:52:20.600Z,0.40
2022-11-04T05:54:47.333Z,0.50
2022-11-04T05:57:14.612Z,0.30
2022-11-04T06:02:33.875Z,0.40
2022-11-04T06:05:01.639Z,0.30
2022-11-04T06:07:28.288Z,0.22
2022-11-04T06:09:55.985Z,0.30
2022-11-04T06:12:22.532Z,0.40
2022-11-04T06:14:49.371Z,0.30
2022-11-04T06:17:16.214Z,0.47
2022-11-04T06:19:42.913Z,0.50
2022-11-04T06:22:09.408Z,0.63
2022-11-04T06:24:35.927Z,1.08
2022-11-04T06:27:02.612Z,0.40
2022-11-04T06:29:29.508Z,0.43
2022-11-04T06:31:56.187Z,0.50
2022-11-04T06:34:23.370Z,0.60
2022-11-04T06:36:50.366Z,0.30
2022-11-04T06:39:17.321Z,0.30
2022-11-04T06:41:47.472Z,0.40
2022-11-04T06:44:15.569Z,0.68
2022-11-04T06:46:42.590Z,0.70
2022-11-04T06:49:09.240Z,0.40
2022-11-04T06:51:36.102Z,0.38
2022-11-04T06:54:03.525Z,0.38
2022-11-04T06:56:31.354Z,0.45
2022-11-04T06:58:58.528Z,0.50
2022-11-04T07:01:25.424Z,0.50
2022-11-04T07:03:52.065Z,1.08
2022-11-04T07:06:18.707Z,0.80
2022-11-04T07:08:45.450Z,0.70
2022-11-04T13:13:08.186Z,0.50
2022-11-04T13:15:34.770Z,0.60
2022-11-04T13:18:01.167Z,0.52
2022-11-04T13:20:27.630Z,0.60
2022-11-04T13:22:56.719Z,1.15
2022-11-04T13:25:26.832Z,0.55
2022-11-04T13:27:53.289Z,0.70
2022-11-04T13:30:19.689Z,0.85
2022-11-04T13:32:46.110Z,0.57
2022-11-04T13:35:12.494Z,0.70
2022-11-04T13:37:38.879Z,0.60
2022-11-04T13:40:05.262Z,0.60
2022-11-04T13:42:31.679Z,0.68
2022-11-04T13:44:58.134Z,0.70
2022-11-04T13:47:24.584Z,0.60
2022-11-04T13:49:51.022Z,0.70
2022-11-04T13:52:17.428Z,0.73
2022-11-04T13:54:43.892Z,0.63
2022-11-04T13:57:10.304Z,0.65
2022-11-04T13:59:36.737Z,0.80
2022-11-04T14:02:03.275Z,0.70
2022-11-04T14:04:29.775Z,0.80
2022-11-04T14:06:56.184Z,0.65
2022-11-04T14:09:22.586Z,0.82
2022-11-04T14:11:48.982Z,0.90
2022-11-04T14:14:15.395Z,0.85
2022-11-04T14:16:41.786Z,1.27
2022-11-04T14:19:08.185Z,1.33
2022-11-04T14:21:34.562Z,0.70
2022-11-04T14:24:01.236Z,0.50
2022-11-04T14:26:27.624Z,1.00
2022-11-04T14:28:54.030Z,0.60
2022-11-04T14:31:20.449Z,0.98
2022-11-04T14:33:46.913Z,0.80
2022-11-04T14:36:13.299Z,0.70
2022-11-04T14:38:39.714Z,0.70
2022-11-04T14:41:06.124Z,0.63
2022-11-04T14:43:32.532Z,0.77
2022-11-04T14:45:58.945Z,0.57
2022-11-04T14:48:25.331Z,0.70
2022-11-04T14:50:51.790Z,0.73
2022-11-04T14:53:18.185Z,0.65
2022-11-04T14:55:44.595Z,0.60
2022-11-04T14:58:10.977Z,0.50
2022-11-04T15:00:37.431Z,0.50
2022-11-04T15:03:03.840Z,0.50
2022-11-04T15:05:30.214Z,0.68
2022-11-04T15:07:56.692Z,0.63
2022-11-04T15:10:23.084Z,0.45
2022-11-04T15:12:49.481Z,0.73
2022-11-04T15:15:15.863Z,0.52
2022-11-04T15:17:42.271Z,0.77
2022-11-04T15:20:08.695Z,0.70
2022-11-04T15:22:35.113Z,0.73
2022-11-04T15:25:01.539Z,0.95
2022-11-04T15:27:27.909Z,1.30
2022-11-04T15:29:54.339Z,0.80
2022-11-04T15:32:20.727Z,0.60
2022-11-04T15:34:47.138Z,0.70
2022-11-04T15:37:13.572Z,0.80
2022-11-04T15:39:39.991Z,0.70
2022-11-04T15:42:06.384Z,0.68
2022-11-04T15:44:32.792Z,0.57
2022-11-04T15:46:59.178Z,0.70
2022-11-04T15:49:25.561Z,1.10
2022-11-04T15:51:51.968Z,0.52
2022-11-04T15:54:18.378Z,0.88
2022-11-04T15:56:44.764Z,0.85
2022-11-04T15:59:11.140Z,1.13
2022-11-04T16:01:37.630Z,1.30
2022-11-04T16:04:04.146Z,1.42
2022-11-04T16:06:30.539Z,1.10
2022-11-04T16:08:56.938Z,1.83
2022-11-04T16:11:23.398Z,1.70
2022-11-04T16:13:49.950Z,1.38
2022-11-04T16:16:16.346Z,0.77
2022-11-04T16:18:42.752Z,0.90
2022-11-04T16:21:09.166Z,0.80
2022-11-04T16:23:35.539Z,0.70
2022-11-04T16:26:01.931Z,0.75
2022-11-04T16:28:28.367Z,0.82
2022-11-04T16:30:54.768Z,0.80
2022-11-04T16:33:21.195Z,0.60
2022-11-04T16:35:47.658Z,0.90
2022-11-04T16:38:14.026Z,0.80
2022-11-04T16:40:40.414Z,0.85
2022-11-04T16:43:07.058Z,1.30
2022-11-04T16:45:33.618Z,1.75
2022-11-04T16:47:59.997Z,4.03
2022-11-04T16:50:26.417Z,1.40
2022-11-04T16:52:52.825Z,0.70
2022-11-04T16:55:19.265Z,0.80
2022-11-04T16:57:45.655Z,0.85
2022-11-04T17:00:12.036Z,1.10
2022-11-04T17:02:38.502Z,1.40
2022-11-04T17:05:04.987Z,1.05
2022-11-04T17:07:51.433Z,1.58
2022-11-04T17:10:17.849Z,1.20
2022-11-04T17:12:44.264Z,0.60
2022-11-04T17:15:10.656Z,1.00
2022-11-04T17:17:37.065Z,0.90
2022-11-04T17:20:03.473Z,1.45
2022-11-04T17:22:29.883Z,1.13
2022-11-04T17:24:56.271Z,1.08
2022-11-04T17:27:22.680Z,0.88
2022-11-04T17:29:49.105Z,1.00
2022-11-04T17:32:15.520Z,1.02
2022-11-04T17:34:41.897Z,1.10
2022-11-04T17:37:08.347Z,1.10
2022-11-04T17:39:34.725Z,1.27
2022-11-04T17:42:01.156Z,1.35
2022-11-04T17:44:27.544Z,1.58
2022-11-04T17:46:53.985Z,1.17
2022-11-04T17:49:20.385Z,1.50
2022-11-04T17:51:46.760Z,1.35
2022-11-04T17:54:13.142Z,1.25
2022-11-04T17:56:39.575Z,1.52
2022-11-04T17:59:05.966Z,1.40
2022-11-04T18:01:32.444Z,1.73
2022-11-04T18:03:58.988Z,2.00
2022-11-04T18:06:25.368Z,1.70
2022-11-04T18:08:51.805Z,1.30
2022-11-04T18:11:18.285Z,1.58
2022-11-04T18:13:44.669Z,1.60
2022-11-04T18:16:11.065Z,1.98
2022-11-04T18:18:37.473Z,1.50
2022-11-04T18:21:03.871Z,1.75
2022-11-04T18:23:30.290Z,1.38
2022-11-04T18:25:56.671Z,1.70
2022-11-04T18:28:23.086Z,1.70
2022-11-04T18:30:49.486Z,1.85
2022-11-04T18:33:15.914Z,2.50
2022-11-04T18:35:42.417Z,2.20
2022-11-04T18:38:08.805Z,2.28
2022-11-04T18:40:35.244Z,1.85
2022-11-04T18:43:06.059Z,1.70
2022-11-04T18:45:35.205Z,1.20
2022-11-04T18:48:01.600Z,1.67
2022-11-04T18:50:28.048Z,1.88
2022-11-04T18:52:54.457Z,1.90
2022-11-04T18:55:20.921Z,2.47
2022-11-04T18:57:47.336Z,2.17
2022-11-04T19:00:17.037Z,2.22
2022-11-04T19:02:43.964Z,2.10
2022-11-04T19:05:10.375Z,2.30
2022-11-04T19:07:36.781Z,2.10
2022-11-04T19:10:03.189Z,2.20
2022-11-04T19:12:29.726Z,2.25
2022-11-04T19:14:56.162Z,1.70
2022-11-04T19:17:22.571Z,1.92
2022-11-04T19:19:48.991Z,2.72
2022-11-04T19:22:15.440Z,4.03
2022-11-04T19:24:41.899Z,3.55
2022-11-04T19:27:08.310Z,3.15
2022-11-04T19:29:34.724Z,2.67
2022-11-04T19:32:01.249Z,2.90
2022-11-04T19:34:27.632Z,3.38
2022-11-04T19:36:54.068Z,3.22
2022-11-04T19:39:20.510Z,3.00
2022-11-04T19:41:46.924Z,2.85
2022-11-04T19:44:13.317Z,2.47
2022-11-04T19:46:39.699Z,1.63
2022-11-04T19:49:06.170Z,1.38
2022-11-04T19:51:32.548Z,1.92
2022-11-04T19:53:58.965Z,1.50
2022-11-04T19:56:25.393Z,1.90
2022-11-04T19:58:51.805Z,1.70
2022-11-04T20:01:18.245Z,1.90
2022-11-04T20:03:44.725Z,2.15
2022-11-04T20:06:11.148Z,2.00
2022-11-04T20:08:37.578Z,2.20
2022-11-04T20:11:04.039Z,2.15
2022-11-04T20:13:30.520Z,2.15
2022-11-04T20:15:56.892Z,2.47
2022-11-04T20:18:23.340Z,2.80
2022-11-04T20:20:49.728Z,3.15
2022-11-04T20:23:16.116Z,2.80
2022-11-04T20:25:42.492Z,2.30
2022-11-04T20:28:09.241Z,2.22
2022-11-04T20:30:36.006Z,2.70
2022-11-04T20:33:02.423Z,2.58
2022-11-04T20:35:28.826Z,1.98
2022-11-04T20:37:55.241Z,2.03
2022-11-04T20:40:21.701Z,2.20
2022-11-04T20:42:48.270Z,2.30
2022-11-04T20:45:14.649Z,2.85
2022-11-04T20:47:44.215Z,2.78
2022-11-04T20:50:10.648Z,2.65
2022-11-04T20:52:37.058Z,3.13
2022-11-04T20:55:03.458Z,2.63
2022-11-04T20:57:29.898Z,2.58
2022-11-04T20:59:56.310Z,2.65
2022-11-04T21:02:22.814Z,2.63
2022-11-04T21:04:49.289Z,2.50
2022-11-04T21:07:15.697Z,2.40
2022-11-04T21:09:42.083Z,2.47
2022-11-04T21:12:08.539Z,2.65
2022-11-04T21:14:34.932Z,2.42
2022-11-04T21:17:01.342Z,2.65
2022-11-04T21:19:27.754Z,2.40
2022-11-04T21:21:54.141Z,2.45
2022-11-04T21:24:20.555Z,2.67
2022-11-04T21:26:46.966Z,2.20
2022-11-04T21:29:13.385Z,2.05
2022-11-04T21:31:39.829Z,1.75
2022-11-04T21:34:06.206Z,1.75
2022-11-04T21:36:32.614Z,2.22
2022-11-04T21:38:59.034Z,1.58
2022-11-04T21:41:25.457Z,1.70
2022-11-04T21:43:51.855Z,1.50
2022-11-04T21:46:18.266Z,1.50
2022-11-04T21:48:44.668Z,1.40
2022-11-04T21:51:11.160Z,1.00
2022-11-04T21:53:37.537Z,1.20
2022-11-04T21:56:03.936Z,1.10
2022-11-04T21:58:30.329Z,1.60
2022-11-04T22:00:56.734Z,1.40
2022-11-04T22:03:23.135Z,1.05
2022-11-04T22:05:49.535Z,1.40
2022-11-04T22:08:15.930Z,1.55
2022-11-04T22:10:42.333Z,1.35
2022-11-04T22:13:09.055Z,1.83
2022-11-04T22:15:35.631Z,1.80
2022-11-04T22:18:02.031Z,1.52
2022-11-04T22:20:28.420Z,1.80
2022-11-04T22:22:54.812Z,1.30
2022-11-04T22:25:21.221Z,2.70
2022-11-04T22:27:47.617Z,1.27
2022-11-04T22:30:14.034Z,1.20
2022-11-04T22:32:40.456Z,1.42
2022-11-04T22:35:06.871Z,1.58
2022-11-04T22:37:33.287Z,1.10
2022-11-04T22:39:59.693Z,1.55
2022-11-04T22:42:26.103Z,1.30
2022-11-04T22:44:52.509Z,1.00
2022-11-04T22:47:18.883Z,2.10
2022-11-04T22:49:45.300Z,1.77
2022-11-04T22:52:11.680Z,2.35
2022-11-04T22:54:38.078Z,1.83
2022-11-04T22:57:04.474Z,1.20
2022-11-04T22:59:30.857Z,1.70
2022-11-04T23:01:57.354Z,1.65
2022-11-04T23:04:23.869Z,1.20
2022-11-04T23:06:50.255Z,1.30
2022-11-04T23:09:16.653Z,1.20
2022-11-04T23:11:43.081Z,1.00
2022-11-04T23:14:09.508Z,1.30
2022-11-04T23:16:35.907Z,1.20
2022-11-04T23:19:02.807Z,1.10
2022-11-04T23:21:29.201Z,1.35
2022-11-04T23:23:55.596Z,1.00
2022-11-04T23:26:27.412Z,1.13
2022-11-04T23:28:54.133Z,1.00
2022-11-04T23:31:20.506Z,1.10
2022-11-04T23:33:46.943Z,1.10
2022-11-04T23:36:13.337Z,1.13
2022-11-04T23:38:39.739Z,1.08
2022-11-04T23:41:06.150Z,1.02
2022-11-04T23:43:32.544Z,1.25
2022-11-04T23:45:58.944Z,1.00
2022-11-04T23:48:25.329Z,0.93
2022-11-04T23:50:51.762Z,1.08
2022-11-04T23:53:18.157Z,1.20
2022-11-04T23:55:44.544Z,1.48
2022-11-04T23:58:10.925Z,1.00
